Terminal Aerodrome Forecast
Issued by NWS Grand Forks, ND

Home | Current Version | Previous Version | Graphics & Text | Print | Product List | Glossary On
Versions: 1 2 3 4 5 6 7 8 9 10 11 12 13 14 15
000
FTUS43 KFGF 240520
TAFGFK
TAF
KGFK 240520Z 2406/2506 21007KT P6SM FEW250
     FM241100 17008KT P6SM FEW250
     FM241600 18011G20KT P6SM SCT250
     FM242200 17011G19KT P6SM BKN025
     FM250000 16008KT 2SM -SN OVC010=

USA.gov is the U.S. government's official web portal to all federal, state and local government web resources and services.